createdAt,value
2023-01-09T00:01:55.326Z,98756.13
2023-01-09T00:04:21.794Z,98650.06
2023-01-09T00:06:53.874Z,98758.53
2023-01-09T00:09:21.619Z,98760.94
2023-01-09T00:11:48.354Z,98779.69
2023-01-09T00:14:16.072Z,98716.81
2023-01-09T00:16:42.463Z,98763.34
2023-01-09T00:19:09.177Z,98750.91
2023-01-09T00:21:35.983Z,98785.44
2023-01-09T00:24:02.439Z,98792.09
2023-01-09T00:26:28.803Z,98789.69
2023-01-09T00:28:55.123Z,98729.03
2023-01-09T00:31:23.355Z,98803.81
2023-01-09T00:33:59.737Z,98739.78
2023-01-09T00:36:26.733Z,98806.16
2023-01-09T00:38:53.072Z,98756.06
2023-01-09T00:41:24.146Z,98684.59
2023-01-09T00:43:55.308Z,98801.09
2023-01-09T00:46:31.233Z,98761.16
2023-01-09T00:48:58.355Z,98700.09
2023-01-09T00:51:24.711Z,98789.56
2023-01-09T00:53:52.130Z,98743.53
2023-01-09T00:56:20.671Z,98815.94
2023-01-09T00:58:48.068Z,98767.81
2023-01-09T01:01:14.737Z,98815.47
2023-01-09T01:03:41.146Z,98725.41
2023-01-09T01:06:26.061Z,98816.88
2023-01-09T01:08:52.410Z,98814.91
2023-01-09T01:11:18.752Z,98810.97
2023-01-09T01:13:45.088Z,98783.28
2023-01-09T01:16:13.454Z,98783.84
2023-01-09T01:18:40.449Z,98826.63
2023-01-09T01:21:08.582Z,98713.38
2023-01-09T01:23:36.407Z,98790.59
2023-01-09T01:26:07.916Z,98836.66
2023-01-09T01:28:34.524Z,98822.38
2023-01-09T01:31:01.101Z,98827.88
2023-01-09T01:33:27.503Z,98793.59
2023-01-09T01:36:10.142Z,98844.94
2023-01-09T01:38:37.854Z,98849.69
2023-01-09T01:41:04.816Z,98835.28
2023-01-09T01:43:54.664Z,98852.50
2023-01-09T01:46:21.201Z,98782.84
2023-01-09T01:48:53.113Z,98798.31
2023-01-09T01:51:23.420Z,98778.19
2023-01-09T01:53:54.301Z,98862.28
2023-01-09T01:56:29.227Z,98756.25
2023-01-09T01:59:11.454Z,98836.66
2023-01-09T02:01:41.244Z,98823.06
2023-01-09T02:04:08.496Z,98849.09
2023-01-09T02:06:35.845Z,98847.41
2023-01-09T02:09:04.616Z,98845.47
2023-01-09T02:11:31.681Z,98825.00
2023-01-09T02:13:59.226Z,98867.47
2023-01-09T02:16:47.989Z,98874.84
2023-01-09T02:19:39.258Z,98881.81
2023-01-09T02:22:27.420Z,98887.16
2023-01-09T02:25:16.547Z,98900.00
2023-01-09T02:28:13.876Z,98897.59
2023-01-09T02:30:48.815Z,98913.47
2023-01-09T02:33:36.776Z,98877.78
2023-01-09T02:36:12.090Z,98921.69
2023-01-09T02:38:44.810Z,98915.91
2023-01-09T02:41:18.730Z,98897.19
2023-01-09T02:43:45.156Z,98882.47
2023-01-09T02:46:20.160Z,98897.44
2023-01-09T02:48:49.298Z,98843.84
2023-01-09T02:51:36.694Z,98794.59
2023-01-09T02:54:14.865Z,98899.09
2023-01-09T02:56:54.725Z,98854.88
2023-01-09T02:59:23.913Z,98863.56
2023-01-09T03:02:13.542Z,98779.22
2023-01-09T03:04:56.952Z,98895.63
2023-01-09T03:07:31.660Z,98862.78
2023-01-09T03:10:06.528Z,98805.75
2023-01-09T03:12:33.421Z,98752.22
2023-01-09T03:15:02.477Z,98897.53
2023-01-09T03:17:40.146Z,98835.59
2023-01-09T03:20:11.746Z,98897.50
2023-01-09T03:22:40.524Z,98850.94
2023-01-09T03:25:07.169Z,98859.84
2023-01-09T03:27:33.521Z,98868.69
2023-01-09T03:29:59.877Z,98890.94
2023-01-09T03:32:27.693Z,98742.47
2023-01-09T03:34:54.148Z,98809.97
2023-01-09T03:37:20.494Z,98878.03
2023-01-09T03:39:46.799Z,98797.69
2023-01-09T03:42:13.129Z,98856.41
2023-01-09T03:44:39.453Z,98881.22
2023-01-09T03:47:05.839Z,98889.91
2023-01-09T03:49:32.159Z,98869.81
2023-01-09T03:51:58.505Z,98839.25
2023-01-09T03:54:24.932Z,98890.28
2023-01-09T03:56:51.303Z,98869.88
2023-01-09T03:59:17.623Z,98822.69
2023-01-09T04:01:44.071Z,98741.09
2023-01-09T04:04:10.572Z,98901.66
2023-01-09T04:06:36.963Z,98909.66
2023-01-09T04:09:03.317Z,98930.66
2023-01-09T04:11:29.640Z,98897.19
2023-01-09T04:13:55.991Z,98894.69
2023-01-09T04:16:22.364Z,98901.06
2023-01-09T04:18:48.748Z,98902.41
2023-01-09T04:21:15.080Z,98885.44
2023-01-09T04:23:41.385Z,98905.13
2023-01-09T04:26:07.934Z,98894.13
2023-01-09T04:28:34.304Z,98928.53
2023-01-09T04:31:02.409Z,98896.28
2023-01-09T04:33:29.183Z,98929.25
2023-01-09T04:35:55.576Z,98905.03
2023-01-09T04:38:21.993Z,98916.59
2023-01-09T04:40:49.045Z,98935.53
2023-01-09T04:43:15.489Z,98907.19
2023-01-09T04:45:41.938Z,98838.25
2023-01-09T04:48:08.354Z,98919.19
2023-01-09T04:50:34.686Z,98912.56
2023-01-09T04:53:01.254Z,98919.06
2023-01-09T04:55:27.672Z,98887.34
2023-01-09T04:57:54.020Z,98951.56
2023-01-09T05:00:20.415Z,98894.03
2023-01-09T05:02:46.813Z,98929.69
2023-01-09T05:05:13.240Z,98903.59
2023-01-09T05:07:39.863Z,98792.72
2023-01-09T05:10:07.465Z,98942.13
2023-01-09T05:12:36.128Z,98767.63
2023-01-09T05:15:03.918Z,98914.88
2023-01-09T05:17:30.315Z,98923.78
2023-01-09T05:19:56.719Z,98837.88
2023-01-09T05:22:23.222Z,98739.44
2023-01-09T05:24:49.582Z,98780.59
2023-01-09T05:27:16.235Z,98943.22
2023-01-09T05:29:42.640Z,98945.88
2023-01-09T05:32:09.022Z,98936.53
2023-01-09T05:34:35.410Z,98797.16
2023-01-09T05:37:01.844Z,98928.63
2023-01-09T05:39:28.355Z,98844.72
2023-01-09T05:41:54.806Z,98826.09
2023-01-09T05:44:21.216Z,98942.03
2023-01-09T05:46:48.220Z,98838.56
2023-01-09T05:49:14.749Z,98739.44
2023-01-09T05:51:41.156Z,98922.47
2023-01-09T05:54:07.546Z,98954.28
2023-01-09T05:56:33.992Z,98917.00
2023-01-09T05:59:00.407Z,98929.22
2023-01-09T06:01:27.066Z,98952.88
2023-01-09T06:03:53.528Z,98820.75
2023-01-09T06:06:19.895Z,98887.00
2023-01-09T06:08:46.262Z,98800.28
2023-01-09T06:11:12.600Z,98866.56
2023-01-09T06:13:38.975Z,98852.47
2023-01-09T06:16:06.480Z,98953.59
2023-01-09T06:18:33.026Z,98815.63
2023-01-09T06:20:59.437Z,98815.56
2023-01-09T06:23:25.787Z,98798.09
2023-01-09T06:25:52.295Z,98876.34
2023-01-09T06:28:18.658Z,98732.06
2023-01-09T06:30:45.325Z,98869.81
2023-01-09T06:33:11.724Z,98968.75
2023-01-09T06:35:38.081Z,98828.09
2023-01-09T06:38:04.792Z,98823.63
2023-01-09T06:40:31.170Z,98830.19
2023-01-09T06:42:57.511Z,98886.75
2023-01-09T06:45:23.937Z,98813.22
2023-01-09T06:47:50.491Z,98883.94
2023-01-09T06:50:17.455Z,98916.50
2023-01-09T06:52:46.353Z,98904.63
2023-01-09T06:55:12.830Z,98905.38
2023-01-09T06:57:42.801Z,98903.22
2023-01-09T07:00:09.890Z,98780.13
2023-01-09T07:02:36.359Z,98884.28
2023-01-09T07:05:03.283Z,98790.72
2023-01-09T07:07:29.656Z,98863.31
2023-01-09T07:09:56.021Z,98875.16
2023-01-09T07:12:22.496Z,98802.53
2023-01-09T07:14:49.043Z,98795.75
2023-01-09T07:17:15.592Z,98916.34
2023-01-09T07:19:42.075Z,98857.06
2023-01-09T07:22:08.739Z,98768.84
2023-01-09T07:24:35.222Z,98892.09
2023-01-09T07:27:03.759Z,98848.59
2023-01-09T07:29:30.386Z,98863.69
2023-01-09T07:31:57.128Z,98933.16
2023-01-09T07:34:23.634Z,98915.34
2023-01-09T07:36:51.159Z,98853.88
2023-01-09T07:39:17.590Z,98949.47
2023-01-09T07:41:45.009Z,98973.28
2023-01-09T07:44:11.567Z,98836.63
2023-01-09T07:46:38.133Z,98847.25
2023-01-09T07:49:04.620Z,98971.31
2023-01-09T07:51:37.461Z,98924.00
2023-01-09T07:54:04.978Z,98811.00
2023-01-09T07:56:31.448Z,98898.75
2023-01-09T07:58:57.845Z,98854.47
2023-01-09T08:01:24.297Z,98829.09
2023-01-09T08:03:50.756Z,98961.06
2023-01-09T08:06:17.358Z,98822.69
2023-01-09T08:08:43.803Z,98859.91
2023-01-09T08:11:10.293Z,98967.34
2023-01-09T08:13:36.746Z,98893.88
2023-01-09T08:16:04.649Z,98871.25
2023-01-09T08:18:31.068Z,98865.84
2023-01-09T08:20:57.508Z,98820.91
2023-01-09T08:23:23.918Z,98801.25
2023-01-09T08:25:50.301Z,98870.34
2023-01-09T08:28:17.903Z,98927.97
2023-01-09T08:30:44.493Z,99010.13
2023-01-09T08:33:10.915Z,98823.09
2023-01-09T08:35:38.039Z,98837.19
2023-01-09T08:38:04.986Z,99025.13
2023-01-09T08:40:31.435Z,98815.75
2023-01-09T08:43:16.741Z,98957.25
2023-01-09T08:46:03.559Z,98933.00
2023-01-09T08:48:29.915Z,98940.31
2023-01-09T08:50:58.821Z,99050.31
2023-01-09T08:53:25.238Z,99032.03
2023-01-09T08:55:54.586Z,98876.78
2023-01-09T08:58:20.992Z,98988.84
2023-01-09T09:00:47.365Z,99065.59
2023-01-09T09:03:13.840Z,98964.88
2023-01-09T09:05:40.332Z,99061.84
2023-01-09T09:08:07.169Z,98982.59
2023-01-09T09:10:33.935Z,99031.78
2023-01-09T09:13:00.753Z,98927.97
2023-01-09T09:15:28.437Z,99003.38
2023-01-09T09:18:00.582Z,99004.25
2023-01-09T09:20:30.199Z,99113.97
2023-01-09T09:22:57.314Z,98979.47
2023-01-09T09:25:29.565Z,98931.44
2023-01-09T09:27:59.356Z,98959.78
2023-01-09T09:30:25.833Z,99050.69
2023-01-09T09:32:52.275Z,99050.44
2023-01-09T09:35:20.838Z,99031.28
2023-01-09T09:37:55.868Z,99015.34
2023-01-09T09:40:45.722Z,99038.41
2023-01-09T09:43:36.835Z,99113.09
2023-01-09T09:46:19.459Z,98927.19
2023-01-09T09:48:55.918Z,98936.66
2023-01-09T09:51:50.675Z,99130.25
2023-01-09T09:54:27.344Z,99085.94
2023-01-09T09:56:57.833Z,99062.47
2023-01-09T09:59:32.375Z,99092.06
2023-01-09T10:02:04.428Z,99129.66
2023-01-09T10:04:33.618Z,99013.13
2023-01-09T10:07:09.486Z,99038.28
2023-01-09T10:09:55.511Z,99139.63
2023-01-09T10:12:29.491Z,99124.69
2023-01-09T10:15:02.236Z,98998.59
2023-01-09T10:17:38.388Z,99179.97
2023-01-09T10:20:41.897Z,99176.22
2023-01-09T10:23:29.701Z,99114.94
2023-01-09T10:26:22.064Z,99161.94
2023-01-09T10:29:15.916Z,99096.94
2023-01-09T10:31:52.874Z,99188.59
2023-01-09T10:34:40.037Z,99037.47
2023-01-09T10:37:20.351Z,99157.38
2023-01-09T10:39:56.074Z,99105.84
2023-01-09T10:42:26.329Z,99182.72
2023-01-09T10:45:02.847Z,99068.13
2023-01-09T10:47:34.318Z,99077.16
2023-01-09T10:50:13.813Z,99038.44
2023-01-09T10:52:42.458Z,99173.28
2023-01-09T10:55:35.782Z,99197.81
2023-01-09T10:58:11.328Z,99136.88
2023-01-09T11:00:39.424Z,99181.03
2023-01-09T11:03:18.686Z,99084.56
2023-01-09T11:05:52.057Z,99187.50
2023-01-09T11:08:25.461Z,99209.47
2023-01-09T11:10:54.942Z,99203.06
2023-01-09T11:13:25.157Z,99098.75
2023-01-09T11:16:06.520Z,99213.63
2023-01-09T11:18:37.385Z,99212.78
2023-01-09T11:21:36.042Z,99221.03
2023-01-09T11:24:26.335Z,99226.50
2023-01-09T11:27:14.225Z,99102.72
2023-01-09T11:29:43.194Z,99117.25
2023-01-09T11:32:24.690Z,99117.31
2023-01-09T11:34:51.273Z,99079.44
2023-01-09T11:37:29.937Z,99135.63
2023-01-09T11:39:59.296Z,99048.03
2023-01-09T11:42:46.305Z,99226.66
2023-01-09T11:45:17.656Z,99235.88
2023-01-09T11:47:44.960Z,99235.28
2023-01-09T11:50:19.022Z,99256.16
2023-01-09T11:52:46.765Z,99239.47
2023-01-09T11:55:19.369Z,99165.03
2023-01-09T11:57:45.798Z,99108.91
2023-01-09T12:00:24.265Z,99259.03
2023-01-09T12:03:02.922Z,99204.28
2023-01-09T12:05:53.808Z,99258.22
2023-01-09T12:08:29.255Z,99276.09
2023-01-09T12:11:24.336Z,99281.16
2023-01-09T12:14:02.616Z,99252.00
2023-01-09T12:16:36.364Z,99280.03
2023-01-09T12:19:24.138Z,99287.97
2023-01-09T12:22:16.400Z,99295.47
2023-01-09T12:25:07.552Z,99297.28
2023-01-09T12:28:04.259Z,99292.47
2023-01-09T12:31:10.366Z,99271.69
2023-01-09T12:34:13.437Z,99303.63
2023-01-09T12:37:19.661Z,99307.38
2023-01-09T12:40:17.057Z,99303.28
2023-01-09T12:43:02.418Z,99306.88
2023-01-09T12:45:34.729Z,99315.66
2023-01-09T12:48:14.139Z,99303.94
2023-01-09T12:50:49.540Z,99280.56
2023-01-09T12:53:38.845Z,99296.03
2023-01-09T12:56:12.027Z,99313.97
2023-01-09T12:58:49.424Z,99280.06
2023-01-09T13:01:48.544Z,99293.63
2023-01-09T13:04:20.910Z,99318.88
2023-01-09T13:06:53.603Z,99320.28
2023-01-09T13:09:33.248Z,99296.25
2023-01-09T13:12:08.845Z,99327.06
2023-01-09T13:14:53.072Z,99292.44
2023-01-09T13:17:31.212Z,99314.31
2023-01-09T13:19:57.673Z,99316.88
2023-01-09T13:22:27.483Z,99322.19
2023-01-09T13:25:19.516Z,99315.06
2023-01-09T13:27:55.077Z,99335.13
2023-01-09T13:30:30.454Z,99331.69
2023-01-09T13:33:21.825Z,99358.81
2023-01-09T13:35:53.812Z,99344.75
2023-01-09T13:38:23.513Z,99354.50
2023-01-09T13:41:28.859Z,99337.63
2023-01-09T13:43:59.517Z,99345.22
2023-01-09T13:46:38.086Z,99372.81
2023-01-09T13:49:04.852Z,99343.88
2023-01-09T13:51:58.894Z,99337.31
2023-01-09T13:54:47.040Z,99385.97
2023-01-09T13:57:19.400Z,99380.59
2023-01-09T13:59:49.776Z,99394.00
2023-01-09T14:02:46.859Z,99402.84
2023-01-09T14:05:36.257Z,99412.56
2023-01-09T14:08:11.445Z,99405.19
2023-01-09T14:10:47.431Z,99395.63
2023-01-09T14:13:21.606Z,99399.53
2023-01-09T14:15:49.541Z,99423.78
2023-01-09T14:18:29.396Z,99348.97
2023-01-09T14:20:59.503Z,99395.97
2023-01-09T14:23:50.430Z,99376.00
2023-01-09T14:26:20.087Z,99396.75
2023-01-09T14:28:46.587Z,99400.25
2023-01-09T14:31:31.128Z,99447.84
2023-01-09T14:34:24.087Z,99457.59
2023-01-09T14:37:01.245Z,99450.44
2023-01-09T14:39:31.904Z,99448.16
2023-01-09T14:42:06.180Z,99480.56
2023-01-09T14:44:32.637Z,99484.81
2023-01-09T14:47:10.936Z,99487.69
2023-01-09T14:49:41.698Z,99358.81
2023-01-09T14:52:20.562Z,99491.94
2023-01-09T14:54:49.352Z,99397.81
2023-01-09T14:57:26.008Z,99512.31
2023-01-09T15:00:00.792Z,99427.19
2023-01-09T15:02:38.484Z,99494.78
2023-01-09T15:05:12.636Z,99452.22
2023-01-09T15:07:48.412Z,99465.22
2023-01-09T15:10:19.111Z,99402.44
2023-01-09T15:12:48.036Z,99418.59
2023-01-09T15:15:15.917Z,99524.84
2023-01-09T15:17:46.347Z,99398.59
2023-01-09T15:20:25.407Z,99422.69
2023-01-09T15:22:54.785Z,99554.47
2023-01-09T15:25:38.585Z,99417.31
2023-01-09T15:28:22.310Z,99569.09
2023-01-09T15:31:14.020Z,99571.53
2023-01-09T15:33:42.453Z,99550.16
2023-01-09T15:36:32.967Z,99550.16
2023-01-09T15:39:00.060Z,99514.84
2023-01-09T15:41:47.603Z,99584.97
2023-01-09T15:44:20.337Z,99496.50
2023-01-09T15:46:50.002Z,99545.47
2023-01-09T15:49:17.289Z,99555.81
2023-01-09T15:51:45.690Z,99451.78
2023-01-09T15:54:17.542Z,99608.28
2023-01-09T15:56:45.800Z,99613.28
2023-01-09T15:59:41.487Z,99522.56
2023-01-09T16:02:32.668Z,99604.25
2023-01-09T16:04:59.139Z,99568.72
2023-01-09T16:07:25.547Z,99562.41
2023-01-09T16:09:54.793Z,99610.25
2023-01-09T16:12:24.914Z,99633.09
2023-01-09T16:14:57.620Z,99628.25
2023-01-09T16:17:26.301Z,99632.13
2023-01-09T16:19:58.455Z,99655.00
2023-01-09T16:22:29.822Z,99682.84
2023-01-09T16:24:59.777Z,99567.28
2023-01-09T16:27:28.615Z,99692.09
2023-01-09T16:29:58.285Z,99662.16
2023-01-09T16:32:29.705Z,99662.59
2023-01-09T16:34:58.840Z,99667.13
2023-01-09T16:37:26.813Z,99612.38
2023-01-09T16:40:05.749Z,99719.78
2023-01-09T16:42:54.079Z,99599.44
2023-01-09T16:45:21.080Z,99721.69
2023-01-09T16:47:47.440Z,99716.47
2023-01-09T16:50:13.997Z,99709.34
2023-01-09T16:52:40.437Z,99599.53
2023-01-09T16:55:07.105Z,99702.94
2023-01-09T16:57:34.575Z,99687.53
2023-01-09T17:00:01.544Z,99656.69
2023-01-09T17:02:28.015Z,99637.22
2023-01-09T17:04:59.124Z,99729.56
2023-01-09T17:07:25.579Z,99739.59
2023-01-09T17:09:53.130Z,99757.75
2023-01-09T17:12:22.077Z,99728.91
2023-01-09T17:14:49.153Z,99659.59
2023-01-09T17:17:17.176Z,99777.78
2023-01-09T17:19:43.928Z,99704.19
2023-01-09T17:22:10.325Z,99645.81
2023-01-09T17:24:55.219Z,99751.03
2023-01-09T17:27:45.483Z,99764.34
2023-01-09T17:30:19.854Z,99746.88
2023-01-09T17:32:47.096Z,99786.31
2023-01-09T17:35:15.347Z,99804.47
2023-01-09T17:37:42.696Z,99810.09
2023-01-09T17:40:17.550Z,99817.78
2023-01-09T17:42:43.932Z,99797.44
2023-01-09T17:45:11.586Z,99741.56
2023-01-09T17:47:38.037Z,99780.78
2023-01-09T17:50:05.803Z,99730.44
2023-01-09T17:52:33.012Z,99636.50
2023-01-09T17:55:05.037Z,99791.44
2023-01-09T17:57:32.400Z,99796.91
2023-01-09T17:59:59.006Z,99836.28
2023-01-09T18:02:25.392Z,99846.75
2023-01-09T18:04:52.043Z,99816.69
2023-01-09T18:07:19.183Z,99751.81
2023-01-09T18:09:45.569Z,99852.00
2023-01-09T18:12:12.306Z,99743.53
2023-01-09T18:14:38.993Z,99853.53
2023-01-09T18:17:06.318Z,99794.94
2023-01-09T18:19:33.278Z,99848.50
2023-01-09T18:22:00.013Z,99819.75
2023-01-09T18:24:26.943Z,99852.13
2023-01-09T18:26:54.306Z,99866.88
2023-01-09T18:29:21.333Z,99900.38
2023-01-09T18:31:47.971Z,99903.22
2023-01-09T18:34:14.513Z,99880.19
2023-01-09T18:36:40.958Z,99864.69
2023-01-09T18:39:08.703Z,99797.75
2023-01-09T18:41:35.172Z,99911.50
2023-01-09T18:44:02.016Z,99930.38
2023-01-09T18:46:31.927Z,99810.34
2023-01-09T18:49:00.804Z,99954.34
2023-01-09T18:51:55.276Z,99953.38
2023-01-09T18:54:21.746Z,99925.91
2023-01-09T18:56:48.120Z,99945.31
2023-01-09T18:59:14.444Z,99958.28
2023-01-09T19:01:40.768Z,99919.53
2023-01-09T19:04:07.154Z,99950.41
2023-01-09T19:06:33.523Z,99958.38
2023-01-09T19:08:59.993Z,99954.22
2023-01-09T19:11:26.807Z,99968.91
2023-01-09T19:13:53.369Z,99971.13
2023-01-09T19:16:19.743Z,99977.81
2023-01-09T19:18:46.252Z,99980.66
2023-01-09T19:21:19.073Z,100016.31
2023-01-09T19:23:46.642Z,100026.72
2023-01-09T19:26:17.162Z,100009.59
2023-01-09T19:28:46.435Z,100013.06
2023-01-09T19:31:14.341Z,99979.44
2023-01-09T19:33:40.700Z,99996.91
2023-01-09T19:36:07.550Z,99997.25
2023-01-09T19:38:33.951Z,99998.66
2023-01-09T19:41:12.976Z,100011.53
2023-01-09T19:43:40.618Z,100004.47
2023-01-09T19:46:09.254Z,100020.00
2023-01-09T19:48:36.313Z,100056.34
2023-01-09T19:51:05.334Z,100009.41
2023-01-09T19:53:32.953Z,100069.25
2023-01-09T19:56:10.938Z,100075.72
2023-01-09T19:58:37.622Z,100046.47
2023-01-09T20:01:20.231Z,100059.97
2023-01-09T20:03:48.317Z,100084.19
2023-01-09T20:06:18.867Z,100095.22
2023-01-09T20:08:47.568Z,100051.66
2023-01-09T20:11:15.439Z,100081.44
2023-01-09T20:13:42.534Z,100017.50
2023-01-09T20:16:14.603Z,100083.69
2023-01-09T20:18:41.002Z,100107.06
2023-01-09T20:21:07.416Z,100102.22
2023-01-09T20:23:34.448Z,100093.63
2023-01-09T20:26:03.762Z,100097.44
2023-01-09T20:28:30.471Z,100118.88
2023-01-09T20:30:57.567Z,100094.94
2023-01-09T20:33:24.298Z,100133.34
2023-01-09T20:35:50.690Z,100155.44
2023-01-09T20:38:17.234Z,100116.53
2023-01-09T20:40:43.861Z,100161.34
2023-01-09T20:43:12.405Z,100174.41
2023-01-09T20:45:39.814Z,100178.69
2023-01-09T20:48:06.576Z,100138.94
2023-01-09T20:50:33.107Z,100161.28
2023-01-09T20:52:59.474Z,100217.75
2023-01-09T20:55:26.223Z,100183.94
2023-01-09T20:57:52.571Z,100197.56
2023-01-09T21:00:19.061Z,100214.75
2023-01-09T21:02:45.380Z,100221.50
2023-01-09T21:05:11.761Z,100155.44
2023-01-09T21:07:38.099Z,100195.81
2023-01-09T21:10:04.883Z,100204.34
2023-01-09T21:12:37.606Z,100215.31
2023-01-09T21:15:07.190Z,100218.41
2023-01-09T21:17:36.227Z,100182.16
2023-01-09T21:20:05.033Z,100256.00
2023-01-09T21:22:35.331Z,100224.00
2023-01-09T21:25:01.758Z,100146.66
2023-01-09T21:27:37.887Z,100256.63
2023-01-09T21:30:06.229Z,100258.47
2023-01-09T21:32:32.781Z,100220.63
2023-01-09T21:35:04.174Z,100253.50
2023-01-09T21:37:35.425Z,100255.25
2023-01-09T21:40:03.137Z,100288.44
2023-01-09T21:42:48.146Z,100287.47
2023-01-09T21:45:34.499Z,100289.28
2023-01-09T21:48:07.288Z,100286.09
2023-01-09T21:50:35.451Z,100292.19
2023-01-09T21:53:01.892Z,100252.81
2023-01-09T21:55:28.730Z,100316.28
2023-01-09T21:57:56.046Z,100255.88
2023-01-09T22:00:23.662Z,100248.47
2023-01-09T22:02:50.661Z,100160.69
2023-01-09T22:05:17.312Z,100336.06
2023-01-09T22:07:43.636Z,100332.03
2023-01-09T22:10:10.542Z,100306.91
2023-01-09T22:12:37.075Z,100299.09
2023-01-09T22:15:04.681Z,100339.94
2023-01-09T22:17:31.140Z,100215.72
2023-01-09T22:19:57.493Z,100340.53
2023-01-09T22:22:23.855Z,100230.50
2023-01-09T22:24:50.244Z,100350.97
2023-01-09T22:27:16.671Z,100328.84
2023-01-09T22:29:42.995Z,100366.91
2023-01-09T22:32:09.311Z,100331.44
2023-01-09T22:34:35.663Z,100378.03
2023-01-09T22:37:02.264Z,100397.19
2023-01-09T22:39:28.641Z,100375.41
2023-01-09T22:41:55.184Z,100389.16
2023-01-09T22:44:21.642Z,100369.19
2023-01-09T22:46:48.047Z,100390.97
2023-01-09T22:49:14.434Z,100377.06
2023-01-09T22:51:40.764Z,100444.38
2023-01-09T22:54:07.517Z,100404.88
2023-01-09T22:56:33.885Z,100413.50
2023-01-09T22:59:00.937Z,100412.66
2023-01-09T23:01:28.054Z,100443.88
2023-01-09T23:03:54.379Z,100427.56
2023-01-09T23:06:22.594Z,100387.84
2023-01-09T23:08:53.087Z,100452.44
2023-01-09T23:11:43.798Z,100462.03
2023-01-09T23:14:11.333Z,100457.94
2023-01-09T23:16:37.751Z,100413.97
2023-01-09T23:19:08.781Z,100459.00
2023-01-09T23:21:36.260Z,100430.00
2023-01-09T23:24:02.884Z,100448.00
2023-01-09T23:26:29.235Z,100463.53
2023-01-09T23:28:55.616Z,100423.06
2023-01-09T23:31:22.033Z,100442.81
2023-01-09T23:33:48.376Z,100487.84
2023-01-09T23:36:14.687Z,100484.38
2023-01-09T23:38:41.078Z,100468.72
2023-01-09T23:41:08.360Z,100519.69
2023-01-09T23:43:34.708Z,100464.50
2023-01-09T23:46:01.527Z,100451.34
2023-01-09T23:48:27.953Z,100478.22
2023-01-09T23:50:54.782Z,100533.47
2023-01-09T23:53:22.319Z,100566.41
2023-01-09T23:55:49.692Z,100545.78
2023-01-09T23:58:16.026Z,100549.28
